< < Back
Terminal Aerodrome Forecast


Current Version              Previous Versions:   1  2  3  4  5  6  7  8  9  

Terminal Aerodrome Forecast

370
FTUS42 KTAE 181100
TAFDHN
TAF
KDHN 181120Z 1812/1912 06010G20KT 3SM +RA SCT007 BKN010CB
     FM190200 01010G20KT 3SM -DZ BR BKN007=

Latest METAR

626
SAUS70 KWBC 182000 RRI
MTRDHN
METAR KDHN 181953Z 01012G18KT 1 3/4SM +RA BR SCT005 OVC013 13/12 A3005
RMK AO2 SLP174 P0023 T01280122


USA.gov is the U.S. government's official web portal to all federal, state and local government web resources and services.